Time;durP1;ratioP1;P1;durP2;ratioP2;P2;SDS_P1;SDS_P2;PMS_P1;PMS_P2;Temp;Humidity;BMP_temperature;BMP_pressure;BME280_temperature;BME280_humidity;BME280_pressure;Samples;Min_cycle;Max_cycle;Signal;HPM_P1;HPM_P2
2022/09/05 00:00:21;;;;;;;44.38;36.65;;;;;;;;;;5107382;28;20030;-78
2022/09/05 00:03:06;;;;;;;32.30;25.48;;;;;;;;;;5085711;28;20027;-77
2022/09/05 00:05:38;;;;;;;24.38;21.23;;;;;;;;;;5117555;28;20022;-79
2022/09/05 00:08:26;;;;;;;31.42;25.42;;;;;;;;;;5077053;28;20028;-78
2022/09/05 00:11:10;;;;;;;31.30;27.38;;;;;;;;;;5053587;28;20474;-80
2022/09/05 00:13:43;;;;;;;32.78;29.33;;;;;;;;;;5110051;28;20016;-79
2022/09/05 00:16:28;;;;;;;34.37;30.77;;;;;;;;;;5102430;28;20050;-81
2022/09/05 00:19:02;;;;;;;35.08;30.20;;;;;;;;;;5108130;28;20253;-77
2022/09/05 00:21:31;;;;;;;36.50;32.00;;;;;;;;;;5108045;28;20467;-77
2022/09/05 00:24:00;;;;;;;36.17;31.17;;;;;;;;;;5122255;28;20352;-80
2022/09/05 00:26:44;;;;;;;36.45;31.17;;;;;;;;;;5112180;28;20076;-78
2022/09/05 00:29:25;;;;;;;33.33;29.90;;;;;;;;;;5081593;28;20031;-78
2022/09/05 00:32:00;;;;;;;37.45;32.92;;;;;;;;;;5065760;28;20028;-78
2022/09/05 00:34:36;;;;;;;36.33;32.03;;;;;;;;;;5078350;28;20068;-78
2022/09/05 00:37:02;;;;;;;36.47;32.50;;;;;;;;;;5099208;28;20032;-81
2022/09/05 00:39:31;;;;;;;35.60;32.00;;;;;;;;;;5098255;28;20102;-80
2022/09/05 00:42:04;;;;;;;38.45;32.78;;;;;;;;;;5096167;28;20024;-81
2022/09/05 00:44:32;;;;;;;35.30;31.73;;;;;;;;;;5078409;28;20484;-79
2022/09/05 00:47:01;;;;;;;35.38;31.35;;;;;;;;;;5115462;28;20056;-77
2022/09/05 00:49:32;;;;;;;36.40;32.63;;;;;;;;;;5086048;28;20024;-78
2022/09/05 00:52:06;;;;;;;34.47;30.70;;;;;;;;;;5105608;27;20037;-80
2022/09/05 00:54:51;;;;;;;35.47;31.90;;;;;;;;;;5069549;28;20031;-81
2022/09/05 00:57:38;;;;;;;38.30;32.05;;;;;;;;;;5111741;28;20043;-79
2022/09/05 01:00:17;;;;;;;36.90;33.20;;;;;;;;;;5111626;28;20081;-78
2022/09/05 01:02:58;;;;;;;34.63;30.98;;;;;;;;;;5111515;28;20035;-78
2022/09/05 01:05:43;;;;;;;35.28;31.60;;;;;;;;;;5083121;28;20501;-79
2022/09/05 01:08:18;;;;;;;36.45;29.65;;;;;;;;;;5123404;27;20058;-79
2022/09/05 01:10:47;;;;;;;40.03;30.75;;;;;;;;;;5083550;28;20111;-78
2022/09/05 01:13:27;;;;;;;34.42;30.83;;;;;;;;;;5097759;28;20031;-77
2022/09/05 01:16:12;;;;;;;37.25;31.00;;;;;;;;;;5110454;28;20414;-79
2022/09/05 01:19:00;;;;;;;33.90;28.27;;;;;;;;;;5095591;28;20077;-78
2022/09/05 01:21:26;;;;;;;32.67;28.85;;;;;;;;;;5071904;28;20024;-79
2022/09/05 01:24:10;;;;;;;32.25;28.67;;;;;;;;;;5091687;28;20022;-78
2022/09/05 01:26:36;;;;;;;36.20;30.98;;;;;;;;;;5097086;28;20022;-79
2022/09/05 01:29:27;;;;;;;34.97;30.95;;;;;;;;;;5082001;28;20461;-78
2022/09/05 01:31:59;;;;;;;34.47;30.38;;;;;;;;;;5082504;28;20032;-78
2022/09/05 01:34:45;;;;;;;33.83;29.42;;;;;;;;;;5097359;28;20047;-79
2022/09/05 01:37:25;;;;;;;35.17;31.42;;;;;;;;;;5065865;28;20027;-77
2022/09/05 01:39:57;;;;;;;30.73;27.52;;;;;;;;;;5110566;28;20082;-79
2022/09/05 01:42:28;;;;;;;32.00;28.55;;;;;;;;;;5075916;28;20020;-76
2022/09/05 01:45:09;;;;;;;35.03;30.27;;;;;;;;;;5095517;28;20016;-77
2022/09/05 01:48:00;;;;;;;33.45;29.17;;;;;;;;;;5095220;28;20056;-76
2022/09/05 01:50:26;;;;;;;31.42;27.90;;;;;;;;;;5116007;27;20024;-75
2022/09/05 01:52:55;;;;;;;34.10;30.70;;;;;;;;;;5083819;28;20038;-77
2022/09/05 01:55:33;;;;;;;34.97;28.42;;;;;;;;;;5107716;28;20046;-77
2022/09/05 01:58:14;;;;;;;39.65;30.67;;;;;;;;;;5074388;28;20174;-79
2022/09/05 02:00:43;;;;;;;33.97;28.73;;;;;;;;;;5093412;28;20020;-78
2022/09/05 02:03:18;;;;;;;31.92;28.48;;;;;;;;;;5076578;28;20024;-80
2022/09/05 02:06:03;;;;;;;32.40;28.80;;;;;;;;;;5115451;27;20023;-77
2022/09/05 02:08:49;;;;;;;36.47;29.27;;;;;;;;;;5078641;28;20028;-79
2022/09/05 02:11:15;;;;;;;35.80;31.50;;;;;;;;;;5086446;28;20036;-79
2022/09/05 02:13:42;;;;;;;40.03;31.38;;;;;;;;;;5111513;28;20046;-77
2022/09/05 02:16:14;;;;;;;31.88;28.45;;;;;;;;;;5096115;28;20511;-76
2022/09/05 02:19:03;;;;;;;34.80;31.08;;;;;;;;;;5082237;28;20031;-78
2022/09/05 02:21:37;;;;;;;37.95;31.20;;;;;;;;;;5086955;28;20030;-78
2022/09/05 02:24:22;;;;;;;37.28;31.25;;;;;;;;;;5096710;28;20045;-78
2022/09/05 02:26:54;;;;;;;33.65;30.25;;;;;;;;;;5117113;27;20015;-78
2022/09/05 02:29:20;;;;;;;33.30;29.88;;;;;;;;;;5081821;28;20027;-78
2022/09/05 02:31:52;;;;;;;35.65;29.35;;;;;;;;;;5086042;28;20039;-78
2022/09/05 02:34:25;;;;;;;35.58;31.90;;;;;;;;;;5096247;28;20474;-77
2022/09/05 02:37:00;;;;;;;34.65;31.08;;;;;;;;;;5089779;28;20019;-79
2022/09/05 02:39:26;;;;;;;34.08;30.75;;;;;;;;;;5074861;28;20143;-78
2022/09/05 02:42:04;;;;;;;41.63;37.47;;;;;;;;;;5109074;28;20020;-80
2022/09/05 02:44:39;;;;;;;37.60;33.30;;;;;;;;;;5075077;28;20024;-77
2022/09/05 02:47:09;;;;;;;42.40;35.67;;;;;;;;;;5108994;28;20085;-79
2022/09/05 02:49:44;;;;;;;35.42;28.42;;;;;;;;;;5079168;28;20020;-78
2022/09/05 02:52:13;;;;;;;33.33;27.80;;;;;;;;;;5093105;28;20077;-77
2022/09/05 02:54:41;;;;;;;28.30;25.25;;;;;;;;;;5093119;28;20486;-79
2022/09/05 02:57:28;;;;;;;28.17;23.73;;;;;;;;;;5119424;27;20019;-78
2022/09/05 03:00:04;;;;;;;26.38;23.10;;;;;;;;;;5075473;28;20028;-77
2022/09/05 03:02:36;;;;;;;23.35;18.90;;;;;;;;;;5087788;28;20062;-79
2022/09/05 03:05:05;;;;;;;23.30;20.55;;;;;;;;;;5073902;28;20060;-78
2022/09/05 03:07:58;;;;;;;34.05;20.83;;;;;;;;;;5118716;27;20076;-78
2022/09/05 03:10:41;;;;;;;21.73;17.20;;;;;;;;;;5088498;28;20478;-79
2022/09/05 03:13:20;;;;;;;24.50;19.40;;;;;;;;;;5108480;28;20123;-78
2022/09/05 03:16:06;;;;;;;24.95;19.88;;;;;;;;;;5103409;28;20028;-78
2022/09/05 03:18:50;;;;;;;26.25;22.45;;;;;;;;;;5089024;28;20016;-80
2022/09/05 03:21:23;;;;;;;25.02;22.38;;;;;;;;;;5087644;28;20031;-78
2022/09/05 03:23:57;;;;;;;26.90;22.38;;;;;;;;;;5093323;28;20490;-77
2022/09/05 03:26:26;;;;;;;28.23;21.95;;;;;;;;;;5087008;28;20023;-77
2022/09/05 03:28:58;;;;;;;26.90;21.98;;;;;;;;;;5084541;28;20081;-76
2022/09/05 03:31:36;;;;;;;25.38;22.13;;;;;;;;;;5095526;28;20039;-78
2022/09/05 03:34:05;;;;;;;30.23;22.10;;;;;;;;;;5084333;28;20031;-78
2022/09/05 03:36:40;;;;;;;26.92;20.33;;;;;;;;;;5089106;28;20048;-78
2022/09/05 03:39:36;;;;;;;22.67;19.60;;;;;;;;;;5108525;28;20525;-80
2022/09/05 03:42:12;;;;;;;26.85;20.92;;;;;;;;;;5115321;27;20019;-78
2022/09/05 03:45:04;;;;;;;31.88;23.95;;;;;;;;;;5080593;28;20020;-77
2022/09/05 03:47:31;;;;;;;24.95;18.75;;;;;;;;;;5065031;28;20051;-77
2022/09/05 03:50:00;;;;;;;20.05;15.98;;;;;;;;;;5108212;28;20024;-78
2022/09/05 03:52:26;;;;;;;28.40;20.45;;;;;;;;;;5108090;28;20027;-79
2022/09/05 03:54:55;;;;;;;24.35;19.38;;;;;;;;;;5097107;28;20518;-81
2022/09/05 03:57:34;;;;;;;28.83;24.20;;;;;;;;;;5087928;28;20044;-78
2022/09/05 04:00:10;;;;;;;34.55;24.73;;;;;;;;;;5097376;28;20041;-78
2022/09/05 04:02:57;;;;;;;33.55;25.77;;;;;;;;;;5079473;28;20039;-79
2022/09/05 04:05:25;;;;;;;32.38;23.92;;;;;;;;;;5051708;28;20035;-76
2022/09/05 04:07:51;;;;;;;40.47;27.50;;;;;;;;;;5102753;28;20556;-76
2022/09/05 04:10:26;;;;;;;32.80;26.27;;;;;;;;;;5119003;28;20382;-80
2022/09/05 04:12:52;;;;;;;34.45;27.65;;;;;;;;;;5102175;28;20486;-77
2022/09/05 04:15:21;;;;;;;36.38;28.92;;;;;;;;;;5118285;28;20039;-77
2022/09/05 04:17:49;;;;;;;43.05;32.20;;;;;;;;;;5119698;28;20416;-79
2022/09/05 04:20:15;;;;;;;38.97;30.65;;;;;;;;;;5082371;28;20024;-77
2022/09/05 04:23:00;;;;;;;45.15;30.40;;;;;;;;;;5114639;28;20016;-79
2022/09/05 04:25:29;;;;;;;36.00;27.80;;;;;;;;;;5096721;28;20020;-76
2022/09/05 04:27:55;;;;;;;33.45;26.50;;;;;;;;;;5082034;28;20024;-77
2022/09/05 04:30:21;;;;;;;30.88;24.08;;;;;;;;;;5121590;28;20016;-76
2022/09/05 04:32:50;;;;;;;33.40;24.50;;;;;;;;;;5087514;28;20081;-77
2022/09/05 04:35:19;;;;;;;28.98;24.58;;;;;;;;;;5084845;28;20493;-77
2022/09/05 04:37:55;;;;;;;35.00;25.95;;;;;;;;;;5107295;28;20383;-77
2022/09/05 04:40:36;;;;;;;34.38;30.15;;;;;;;;;;5080295;28;20123;-75
2022/09/05 04:43:18;;;;;;;46.30;35.58;;;;;;;;;;5095773;28;20038;-76
2022/09/05 04:45:47;;;;;;;38.03;26.58;;;;;;;;;;5063947;28;20028;-78
2022/09/05 04:48:16;;;;;;;42.42;35.58;;;;;;;;;;5107503;28;20038;-75
2022/09/05 04:50:46;;;;;;;44.33;35.88;;;;;;;;;;5086691;28;20391;-77
2022/09/05 04:53:31;;;;;;;45.08;33.67;;;;;;;;;;5105364;28;20110;-76
2022/09/05 04:55:57;;;;;;;46.55;32.20;;;;;;;;;;5102716;28;20017;-77
2022/09/05 04:58:30;;;;;;;48.28;39.58;;;;;;;;;;5090778;28;20099;-77
2022/09/05 05:01:02;;;;;;;34.45;29.45;;;;;;;;;;5090829;28;20027;-78
2022/09/05 05:03:30;;;;;;;46.42;39.40;;;;;;;;;;5090977;28;20035;-76
2022/09/05 05:05:58;;;;;;;43.15;36.10;;;;;;;;;;5091083;28;20576;-78
2022/09/05 05:08:27;;;;;;;40.38;34.53;;;;;;;;;;5091053;28;20031;-77
2022/09/05 05:11:01;;;;;;;40.17;31.13;;;;;;;;;;5090162;28;20016;-76
2022/09/05 05:13:35;;;;;;;38.80;30.50;;;;;;;;;;5090806;28;20043;-78
2022/09/05 05:16:10;;;;;;;40.72;31.88;;;;;;;;;;5090407;28;20046;-76
2022/09/05 05:18:51;;;;;;;34.35;28.00;;;;;;;;;;5093644;28;20069;-77
2022/09/05 05:21:22;;;;;;;41.72;28.10;;;;;;;;;;5094220;28;20475;-75
2022/09/05 05:24:08;;;;;;;42.63;29.40;;;;;;;;;;5124508;27;20323;-76
2022/09/05 05:26:53;;;;;;;37.55;27.15;;;;;;;;;;5086013;28;20018;-77
2022/09/05 05:29:21;;;;;;;36.05;28.30;;;;;;;;;;5094257;28;20050;-76
2022/09/05 05:31:50;;;;;;;42.58;33.92;;;;;;;;;;5095634;28;20034;-79
2022/09/05 05:34:36;;;;;;;36.03;29.20;;;;;;;;;;5098113;28;20020;-77
2022/09/05 05:37:10;;;;;;;48.63;37.42;;;;;;;;;;5082117;28;20395;-78
2022/09/05 05:39:39;;;;;;;42.38;33.25;;;;;;;;;;5107694;28;20071;-77
2022/09/05 05:42:13;;;;;;;44.33;31.05;;;;;;;;;;5105497;28;20016;-77
2022/09/05 05:44:39;;;;;;;48.80;35.03;;;;;;;;;;5068218;28;20047;-77
2022/09/05 05:47:08;;;;;;;39.47;31.88;;;;;;;;;;5089649;28;20055;-78
2022/09/05 05:50:01;;;;;;;35.40;30.58;;;;;;;;;;5081535;28;20020;-78
2022/09/05 05:52:33;;;;;;;44.90;36.33;;;;;;;;;;5059658;28;20044;-77
2022/09/05 05:55:17;;;;;;;42.08;34.75;;;;;;;;;;5096597;28;20065;-76
2022/09/05 05:58:02;;;;;;;50.90;39.15;;;;;;;;;;5110500;27;20111;-77
2022/09/05 06:00:40;;;;;;;54.60;46.63;;;;;;;;;;5113788;27;20028;-78
2022/09/05 06:03:18;;;;;;;41.67;32.72;;;;;;;;;;5106431;27;20028;-77
2022/09/05 06:05:47;;;;;;;36.60;30.45;;;;;;;;;;5085459;28;20027;-76
2022/09/05 06:08:22;;;;;;;35.75;29.23;;;;;;;;;;5115422;27;20023;-78
2022/09/05 06:11:04;;;;;;;52.17;38.80;;;;;;;;;;5065303;28;20540;-78
2022/09/05 06:13:39;;;;;;;48.45;37.13;;;;;;;;;;5066023;28;20043;-77
2022/09/05 06:16:24;;;;;;;38.33;32.40;;;;;;;;;;5112311;27;20053;-78
2022/09/05 06:18:50;;;;;;;41.53;31.10;;;;;;;;;;5117340;27;20539;-76
2022/09/05 06:21:34;;;;;;;43.83;35.58;;;;;;;;;;5104702;28;20036;-76
2022/09/05 06:24:03;;;;;;;38.80;33.30;;;;;;;;;;5094723;28;20069;-78
2022/09/05 06:26:48;;;;;;;116.30;97.75;;;;;;;;;;5121953;27;20031;-77
2022/09/05 06:29:17;;;;;;;68.30;56.45;;;;;;;;;;5107588;28;20118;-78
2022/09/05 06:32:01;;;;;;;55.53;44.30;;;;;;;;;;5093455;28;20167;-77
2022/09/05 06:34:46;;;;;;;39.45;33.20;;;;;;;;;;5101293;28;20031;-79
2022/09/05 06:37:27;;;;;;;40.47;30.45;;;;;;;;;;5097543;28;20104;-77
2022/09/05 06:39:59;;;;;;;35.33;31.73;;;;;;;;;;5092634;28;20486;-79
2022/09/05 06:42:55;;;;;;;39.90;32.17;;;;;;;;;;5108417;27;20035;-76
2022/09/05 06:45:31;;;;;;;45.72;33.03;;;;;;;;;;5107805;27;20490;-78
2022/09/05 06:48:09;;;;;;;46.88;39.53;;;;;;;;;;5105082;27;20024;-79
2022/09/05 06:50:49;;;;;;;35.22;31.40;;;;;;;;;;5087670;28;20109;-79
2022/09/05 06:53:34;;;;;;;39.90;32.88;;;;;;;;;;5070087;28;20032;-77
2022/09/05 06:56:09;;;;;;;37.60;30.88;;;;;;;;;;5106509;27;20023;-78
2022/09/05 06:58:41;;;;;;;41.05;31.58;;;;;;;;;;5095000;28;20024;-76
2022/09/05 07:01:08;;;;;;;40.22;31.90;;;;;;;;;;5100165;28;20020;-78
2022/09/05 07:03:49;;;;;;;42.95;33.15;;;;;;;;;;5110385;27;20103;-79
2022/09/05 07:06:36;;;;;;;42.58;33.13;;;;;;;;;;5097616;28;20035;-79
2022/09/05 07:09:08;;;;;;;39.55;32.92;;;;;;;;;;5041968;28;20033;-78
2022/09/05 07:11:40;;;;;;;34.67;30.35;;;;;;;;;;5105705;27;20028;-77
2022/09/05 07:14:07;;;;;;;35.72;31.90;;;;;;;;;;5092752;28;20074;-76
2022/09/05 07:16:33;;;;;;;36.67;27.95;;;;;;;;;;5073091;28;20017;-78
2022/09/05 07:19:16;;;;;;;39.78;31.63;;;;;;;;;;5090427;28;20020;-77
2022/09/05 07:21:49;;;;;;;34.25;30.55;;;;;;;;;;5093882;28;20070;-79
2022/09/05 07:24:17;;;;;;;43.13;34.80;;;;;;;;;;5101402;27;20028;-78
2022/09/05 07:26:45;;;;;;;43.70;35.83;;;;;;;;;;5082367;28;20352;-76
2022/09/05 07:29:13;;;;;;;312.98;69.18;;;;;;;;;;5098550;28;20024;-76
2022/09/05 07:31:40;;;;;;;809.28;183.30;;;;;;;;;;5080967;28;20032;-79
2022/09/05 07:34:24;;;;;;;453.73;96.25;;;;;;;;;;5100679;28;20020;-77
2022/09/05 07:36:55;;;;;;;75.90;40.45;;;;;;;;;;5096377;28;20449;-77
2022/09/05 07:39:30;;;;;;;49.17;33.45;;;;;;;;;;5094331;28;20048;-78
2022/09/05 07:41:59;;;;;;;38.60;30.98;;;;;;;;;;5076504;28;20020;-78
2022/09/05 07:44:28;;;;;;;64.40;32.80;;;;;;;;;;5070225;28;20024;-76
2022/09/05 07:47:03;;;;;;;31.63;28.35;;;;;;;;;;5108335;28;20107;-79
2022/09/05 07:49:32;;;;;;;39.92;31.77;;;;;;;;;;5104326;28;20012;-77
2022/09/05 07:52:28;;;;;;;34.35;30.55;;;;;;;;;;5114155;27;20474;-78
2022/09/05 07:54:58;;;;;;;48.95;42.33;;;;;;;;;;5080045;28;20054;-77
2022/09/05 07:57:32;;;;;;;36.35;32.35;;;;;;;;;;5107786;27;20139;-77
2022/09/05 08:00:10;;;;;;;31.52;28.02;;;;;;;;;;5076342;28;20020;-76
2022/09/05 08:02:42;;;;;;;35.67;30.25;;;;;;;;;;5108177;28;20055;-76
2022/09/05 08:05:08;;;;;;;45.33;40.33;;;;;;;;;;5106807;28;20024;-79
2022/09/05 08:07:37;;;;;;;47.30;37.78;;;;;;;;;;5091517;28;20426;-78
2022/09/05 08:10:08;;;;;;;45.92;38.95;;;;;;;;;;5074608;28;20475;-78
2022/09/05 08:12:41;;;;;;;32.45;29.25;;;;;;;;;;5078301;28;20482;-78
2022/09/05 08:15:07;;;;;;;30.52;27.38;;;;;;;;;;5102093;28;20028;-76
2022/09/05 08:17:41;;;;;;;41.33;35.38;;;;;;;;;;5091920;28;20051;-77
2022/09/05 08:20:07;;;;;;;;;;;;;;;;;;5072552;28;20030;-77
2022/09/05 08:22:59;;;;;;;35.60;32.10;;;;;;;;;;5091084;28;19904;-78
2022/09/05 08:25:36;;;;;;;37.67;33.72;;;;;;;;;;5065757;28;20115;-79
2022/09/05 08:28:22;;;;;;;39.22;34.75;;;;;;;;;;5103677;28;20016;-77
2022/09/05 08:30:59;;;;;;;54.72;49.10;;;;;;;;;;5096409;28;20034;-78
2022/09/05 08:33:31;;;;;;;113.70;101.80;;;;;;;;;;5069966;28;20035;-80
2022/09/05 08:36:05;;;;;;;56.70;51.00;;;;;;;;;;5108773;28;20044;-77
2022/09/05 08:38:33;;;;;;;28.52;25.73;;;;;;;;;;5096398;28;20335;-78
2022/09/05 08:41:02;;;;;;;53.70;48.33;;;;;;;;;;5074977;28;20532;-78
2022/09/05 08:43:31;;;;;;;34.35;30.90;;;;;;;;;;5089766;28;20470;-74
2022/09/05 08:46:13;;;;;;;27.92;24.73;;;;;;;;;;5091095;28;20034;-78
2022/09/05 08:48:58;;;;;;;35.38;31.90;;;;;;;;;;5112218;28;20020;-79
2022/09/05 08:51:42;;;;;;;27.63;25.05;;;;;;;;;;5078092;28;20031;-78
2022/09/05 08:54:20;;;;;;;24.75;22.45;;;;;;;;;;5090375;28;20039;-77
2022/09/05 08:56:46;;;;;;;26.33;23.67;;;;;;;;;;5094211;28;20024;-77
2022/09/05 08:59:15;;;;;;;26.88;24.27;;;;;;;;;;5101232;27;20082;-77
2022/09/05 09:01:41;;;;;;;27.70;24.88;;;;;;;;;;5094886;28;20028;-77
2022/09/05 09:04:11;;;;;;;27.48;24.45;;;;;;;;;;5110066;28;20043;-77
2022/09/05 09:06:40;;;;;;;26.17;23.40;;;;;;;;;;5114529;27;20501;-77
2022/09/05 09:09:09;;;;;;;44.33;39.08;;;;;;;;;;5090493;28;20023;-77
2022/09/05 09:11:45;;;;;;;61.33;54.92;;;;;;;;;;5102669;28;20044;-79
2022/09/05 09:14:14;;;;;;;24.80;22.33;;;;;;;;;;5113619;27;20491;-78
2022/09/05 09:16:40;;;;;;;34.83;31.33;;;;;;;;;;5121247;27;20078;-79
2022/09/05 09:19:36;;;;;;;31.48;28.33;;;;;;;;;;5083843;28;20019;-77
2022/09/05 09:22:02;;;;;;;30.48;25.52;;;;;;;;;;5040511;28;20075;-80
2022/09/05 09:24:51;;;;;;;34.15;30.67;;;;;;;;;;5077096;28;20016;-79
2022/09/05 09:27:30;;;;;;;29.05;26.20;;;;;;;;;;5107782;27;20023;-75
2022/09/05 09:29:59;;;;;;;44.20;40.15;;;;;;;;;;5097238;28;20059;-78
2022/09/05 09:32:27;;;;;;;38.65;34.90;;;;;;;;;;5109628;28;20028;-78
2022/09/05 09:34:59;;;;;;;31.85;28.83;;;;;;;;;;5072682;28;20048;-77
2022/09/05 09:37:32;;;;;;;35.05;31.55;;;;;;;;;;5087777;28;20054;-81
2022/09/05 09:40:11;;;;;;;47.70;42.83;;;;;;;;;;5111237;27;20482;-79
2022/09/05 09:42:37;;;;;;;28.45;25.70;;;;;;;;;;5094209;28;20024;-82
2022/09/05 09:45:33;;;;;;;38.85;34.75;;;;;;;;;;5075899;28;20027;-79
2022/09/05 09:48:18;;;;;;;26.23;22.70;;;;;;;;;;5067613;28;20043;-80
2022/09/05 09:51:03;;;;;;;31.92;28.58;;;;;;;;;;5081851;28;20031;-82
2022/09/05 09:53:29;;;;;;;46.72;41.65;;;;;;;;;;5119761;27;20112;-78
2022/09/05 09:56:02;;;;;;;35.67;31.88;;;;;;;;;;5089841;28;20677;-82
2022/09/05 09:58:35;;;;;;;31.08;27.80;;;;;;;;;;5101923;28;20427;-81
2022/09/05 10:01:20;;;;;;;26.17;23.63;;;;;;;;;;5081353;28;20027;-81
2022/09/05 10:04:06;;;;;;;24.75;22.35;;;;;;;;;;5081007;28;20122;-82
2022/09/05 10:06:51;;;;;;;27.02;24.17;;;;;;;;;;5097013;28;20020;-81
2022/09/05 10:09:36;;;;;;;30.67;27.58;;;;;;;;;;5112023;28;20561;-82
2022/09/05 10:12:03;;;;;;;36.42;32.72;;;;;;;;;;5083814;28;20032;-81
2022/09/05 10:14:53;;;;;;;40.70;30.15;;;;;;;;;;5107166;28;20020;-83
2022/09/05 10:17:38;;;;;;;33.72;29.20;;;;;;;;;;5108245;28;20036;-81
2022/09/05 10:20:07;;;;;;;27.40;24.45;;;;;;;;;;5062731;28;20395;-82
2022/09/05 10:22:36;;;;;;;64.47;56.50;;;;;;;;;;5121744;27;20501;-79
2022/09/05 10:25:26;;;;;;;22.25;19.98;;;;;;;;;;5108432;28;20096;-81
2022/09/05 10:28:04;;;;;;;39.15;35.28;;;;;;;;;;5096812;28;20036;-80
2022/09/05 10:30:42;;;;;;;19.95;17.90;;;;;;;;;;5110131;28;20030;-80
2022/09/05 10:33:08;;;;;;;21.38;19.10;;;;;;;;;;5093285;28;20035;-82
2022/09/05 10:35:35;;;;;;;20.23;18.42;;;;;;;;;;5109939;28;20016;-80
2022/09/05 10:38:17;;;;;;;20.75;18.77;;;;;;;;;;5109150;28;20048;-79
2022/09/05 10:40:45;;;;;;;21.73;19.48;;;;;;;;;;5103876;28;20114;-80
2022/09/05 10:43:15;;;;;;;24.73;22.10;;;;;;;;;;5109272;28;20022;-80
2022/09/05 10:45:59;;;;;;;24.20;20.83;;;;;;;;;;5075413;28;20483;-80
2022/09/05 10:48:44;;;;;;;31.67;28.65;;;;;;;;;;5109477;28;20119;-77
2022/09/05 10:51:10;;;;;;;25.75;23.25;;;;;;;;;;5108310;27;20066;-79
2022/09/05 10:53:37;;;;;;;33.88;30.42;;;;;;;;;;5071189;28;20366;-81
2022/09/05 10:56:21;;;;;;;30.92;27.73;;;;;;;;;;5113497;27;20190;-80
2022/09/05 10:58:50;;;;;;;21.75;19.67;;;;;;;;;;5118550;27;20020;-79
2022/09/05 11:01:20;;;;;;;23.42;21.13;;;;;;;;;;5115987;27;20024;-80
2022/09/05 11:03:50;;;;;;;38.47;34.88;;;;;;;;;;5087314;28;20025;-82
2022/09/05 11:06:18;;;;;;;31.80;28.70;;;;;;;;;;5086152;28;20081;-81
2022/09/05 11:08:47;;;;;;;26.10;21.92;;;;;;;;;;5108362;28;20026;-78
2022/09/05 11:11:23;;;;;;;18.35;16.38;;;;;;;;;;5106854;27;20111;-83
2022/09/05 11:13:57;;;;;;;32.60;29.45;;;;;;;;;;5105629;28;20032;-78
2022/09/05 11:16:26;;;;;;;18.77;16.90;;;;;;;;;;5074262;28;20087;-75
2022/09/05 11:19:06;;;;;;;23.70;21.30;;;;;;;;;;5095708;27;20055;-78
2022/09/05 11:21:54;;;;;;;23.27;18.33;;;;;;;;;;5093137;28;20020;-78
2022/09/05 11:24:34;;;;;;;20.00;17.92;;;;;;;;;;5107947;28;20394;-78
2022/09/05 11:27:00;;;;;;;20.73;18.10;;;;;;;;;;5073673;28;20047;-77
2022/09/05 11:29:34;;;;;;;16.42;14.93;;;;;;;;;;5094430;28;20070;-76
2022/09/05 11:32:03;;;;;;;23.13;20.83;;;;;;;;;;5092894;28;20036;-77
2022/09/05 11:34:30;;;;;;;20.77;17.63;;;;;;;;;;5115430;28;20024;-79
2022/09/05 11:36:57;;;;;;;17.25;15.73;;;;;;;;;;5103787;28;20095;-78
2022/09/05 11:39:46;;;;;;;25.83;23.23;;;;;;;;;;5107683;28;20093;-79
2022/09/05 11:42:21;;;;;;;19.42;15.95;;;;;;;;;;5092404;28;20036;-83
2022/09/05 11:45:07;;;;;;;19.38;17.30;;;;;;;;;;5108396;28;20020;-80
2022/09/05 11:47:47;;;;;;;45.97;41.45;;;;;;;;;;5108239;28;20032;-78
2022/09/05 11:50:43;;;;;;;30.85;27.75;;;;;;;;;;5093878;28;20176;-81
2022/09/05 11:53:27;;;;;;;25.58;22.98;;;;;;;;;;5054130;28;20055;-82
2022/09/05 11:56:12;;;;;;;69.57;62.50;;;;;;;;;;5072372;28;20016;-81
2022/09/05 11:58:47;;;;;;;23.90;21.63;;;;;;;;;;5108207;28;20019;-79
2022/09/05 12:01:14;;;;;;;15.57;14.00;;;;;;;;;;5103760;28;20024;-81
2022/09/05 12:03:54;;;;;;;19.15;17.23;;;;;;;;;;5122732;27;20046;-79
2022/09/05 12:06:23;;;;;;;17.58;15.55;;;;;;;;;;5082975;28;20023;-80
2022/09/05 12:08:49;;;;;;;17.02;15.45;;;;;;;;;;5094380;28;20032;-78
2022/09/05 12:11:31;;;;;;;20.20;18.40;;;;;;;;;;5092247;28;20019;-77
2022/09/05 12:14:32;;;;;;;24.00;21.77;;;;;;;;;;5091759;28;20034;-79
2022/09/05 12:17:06;;;;;;;67.30;60.90;;;;;;;;;;5029271;28;20025;-80
2022/09/05 12:19:39;;;;;;;33.10;30.17;;;;;;;;;;5069670;28;20102;-78
2022/09/05 12:22:24;;;;;;;34.58;31.30;;;;;;;;;;5112305;28;20023;-78
2022/09/05 12:24:56;;;;;;;54.25;49.45;;;;;;;;;;5073063;28;20024;-76
2022/09/05 12:27:23;;;;;;;22.25;20.25;;;;;;;;;;5074967;28;20073;-79
2022/09/05 12:29:53;;;;;;;13.43;12.10;;;;;;;;;;5112147;28;20028;-79
2022/09/05 12:32:20;;;;;;;16.55;15.13;;;;;;;;;;5110690;28;20424;-77
2022/09/05 12:34:51;;;;;;;25.30;23.00;;;;;;;;;;5099011;28;20099;-79
2022/09/05 12:37:23;;;;;;;30.42;27.25;;;;;;;;;;5098636;28;20557;-85
2022/09/05 12:39:53;;;;;;;18.80;16.15;;;;;;;;;;5088243;28;20047;-81
2022/09/05 12:42:39;;;;;;;45.90;41.75;;;;;;;;;;5091514;28;20024;-80
2022/09/05 12:45:18;;;;;;;20.45;18.75;;;;;;;;;;5103263;28;20498;-77
2022/09/05 12:47:53;;;;;;;16.02;14.43;;;;;;;;;;5118994;27;20028;-76
2022/09/05 12:50:22;;;;;;;12.02;10.88;;;;;;;;;;5068349;28;20101;-76
2022/09/05 12:52:57;;;;;;;24.27;19.88;;;;;;;;;;5090731;28;20040;-77
2022/09/05 12:55:31;;;;;;;20.25;16.63;;;;;;;;;;5091391;28;20028;-77
2022/09/05 12:57:59;;;;;;;12.68;11.50;;;;;;;;;;5111141;28;20057;-78
2022/09/05 13:00:26;;;;;;;29.55;26.92;;;;;;;;;;5110898;28;20024;-76
2022/09/05 13:02:55;;;;;;;22.05;20.10;;;;;;;;;;5081682;28;20016;-76
2022/09/05 13:05:26;;;;;;;28.08;25.35;;;;;;;;;;5112098;28;20016;-77
2022/09/05 13:07:58;;;;;;;22.10;20.10;;;;;;;;;;5094562;28;20016;-77
2022/09/05 13:10:32;;;;;;;13.00;11.70;;;;;;;;;;5110615;28;20386;-79
2022/09/05 13:13:00;;;;;;;19.33;17.50;;;;;;;;;;5076799;28;20117;-78
2022/09/05 13:15:35;;;;;;;12.43;11.13;;;;;;;;;;5076306;28;20022;-83
2022/09/05 13:18:14;;;;;;;32.95;29.98;;;;;;;;;;5077191;28;20012;-81
2022/09/05 13:20:47;;;;;;;18.25;16.42;;;;;;;;;;5088397;28;20052;-77
2022/09/05 13:23:25;;;;;;;16.35;14.57;;;;;;;;;;5076464;28;20016;-77
2022/09/05 13:26:15;;;;;;;14.25;12.30;;;;;;;;;;5094618;28;20035;-76
2022/09/05 13:28:49;;;;;;;21.35;19.35;;;;;;;;;;5075254;28;20030;-75
2022/09/05 13:31:16;;;;;;;15.77;14.23;;;;;;;;;;5101456;28;20069;-76
2022/09/05 13:33:43;;;;;;;16.77;15.05;;;;;;;;;;5092046;28;20035;-77
2022/09/05 13:36:12;;;;;;;11.63;10.38;;;;;;;;;;5077513;28;20035;-78
2022/09/05 13:38:53;;;;;;;15.30;13.75;;;;;;;;;;5112643;27;20221;-76
2022/09/05 13:41:28;;;;;;;11.88;10.70;;;;;;;;;;5092992;28;20028;-77
2022/09/05 13:43:55;;;;;;;21.17;19.17;;;;;;;;;;5111303;28;20028;-77
2022/09/05 13:46:29;;;;;;;26.55;23.70;;;;;;;;;;5111726;28;20020;-78
2022/09/05 13:48:58;;;;;;;13.25;11.55;;;;;;;;;;5116163;27;20520;-77
2022/09/05 13:51:44;;;;;;;27.70;22.92;;;;;;;;;;5115554;27;20016;-76
2022/09/05 13:54:32;;;;;;;15.27;12.57;;;;;;;;;;5100160;28;20031;-76
2022/09/05 13:57:15;;;;;;;15.15;13.60;;;;;;;;;;5107853;28;20020;-75
2022/09/05 13:59:42;;;;;;;15.90;14.18;;;;;;;;;;5078928;28;20381;-78
2022/09/05 14:02:26;;;;;;;17.77;15.98;;;;;;;;;;5077017;28;20429;-78
2022/09/05 14:05:02;;;;;;;30.55;27.58;;;;;;;;;;5099718;28;20024;-76
2022/09/05 14:07:43;;;;;;;24.85;22.15;;;;;;;;;;5066685;28;20032;-77
2022/09/05 14:10:22;;;;;;;28.35;24.95;;;;;;;;;;5101630;28;20024;-76
2022/09/05 14:12:48;;;;;;;21.35;19.23;;;;;;;;;;5112982;27;20039;-75
2022/09/05 14:15:29;;;;;;;25.15;22.55;;;;;;;;;;5111326;28;20016;-77
2022/09/05 14:17:58;;;;;;;19.90;17.98;;;;;;;;;;5065180;28;20161;-77
2022/09/05 14:23:15;;;;;;;17.95;16.10;;;;;;;;;;5085353;28;20072;-78
2022/09/05 14:25:49;;;;;;;34.65;28.90;;;;;;;;;;5082640;28;20162;-76
2022/09/05 14:28:25;;;;;;;16.17;13.88;;;;;;;;;;5087577;28;20032;-77
2022/09/05 14:30:53;;;;;;;17.38;13.98;;;;;;;;;;5111186;27;20064;-78
2022/09/05 14:33:29;;;;;;;41.78;36.88;;;;;;;;;;5122258;27;20078;-77
2022/09/05 14:36:14;;;;;;;15.43;12.88;;;;;;;;;;5064887;28;20024;-76
2022/09/05 14:38:59;;;;;;;18.90;17.02;;;;;;;;;;5106759;27;20049;-77
2022/09/05 14:41:40;;;;;;;37.88;34.33;;;;;;;;;;5073985;28;20035;-78
2022/09/05 14:44:12;;;;;;;19.05;16.98;;;;;;;;;;5078725;28;20115;-77
2022/09/05 14:46:38;;;;;;;23.33;20.40;;;;;;;;;;5084904;28;20487;-77
2022/09/05 14:49:16;;;;;;;37.75;33.97;;;;;;;;;;5085160;28;20031;-78
2022/09/05 14:51:45;;;;;;;33.03;29.55;;;;;;;;;;5074566;28;20013;-77
2022/09/05 14:54:20;;;;;;;25.73;23.30;;;;;;;;;;5103772;27;20031;-78
2022/09/05 14:56:55;;;;;;;43.15;39.22;;;;;;;;;;5096295;28;20077;-78
2022/09/05 14:59:24;;;;;;;27.38;24.67;;;;;;;;;;5076821;28;20563;-78
2022/09/05 15:02:17;;;;;;;27.13;24.63;;;;;;;;;;5123120;27;20071;-78
2022/09/05 15:04:45;;;;;;;;;;;;;;;;;;5068748;28;20049;-78
2022/09/05 15:07:25;;;;;;;14.43;13.20;;;;;;;;;;5073391;28;19932;-76